Time;durP1;ratioP1;P1;durP2;ratioP2;P2;SDS_P1;SDS_P2;PMS_P1;PMS_P2;Temp;Humidity;BMP_temperature;BMP_pressure;BME280_temperature;BME280_humidity;BME280_pressure;Samples;Min_cycle;Max_cycle;Signal;HPM_P1;HPM_P2
2023/10/18 00:00:59;;;;;;;1999.90;999.90;;;6.90;99.90;;;;;;5039097;28;20400;-65
2023/10/18 00:03:36;;;;;;;1999.90;999.90;;;6.90;99.90;;;;;;5037829;28;20029;-66
2023/10/18 00:06:15;;;;;;;1999.90;999.90;;;6.90;99.90;;;;;;5050363;28;20037;-66
2023/10/18 00:08:41;;;;;;;1999.90;999.90;;;6.90;99.90;;;;;;5055639;28;20031;-67
2023/10/18 00:11:07;;;;;;;1999.90;999.90;;;6.80;99.90;;;;;;5038801;28;20026;-66
2023/10/18 00:13:33;;;;;;;1999.90;999.90;;;6.80;99.90;;;;;;5036896;28;20298;-65
2023/10/18 00:16:04;;;;;;;1999.90;999.90;;;6.80;99.90;;;;;;5042369;28;20013;-65
2023/10/18 00:18:32;;;;;;;1999.90;999.90;;;6.90;99.90;;;;;;5052822;28;20021;-65
2023/10/18 00:21:07;;;;;;;1999.90;999.90;;;6.90;99.90;;;;;;5039940;28;20397;-66
2023/10/18 00:23:33;;;;;;;1999.90;999.90;;;6.90;99.90;;;;;;5053592;28;20038;-85
2023/10/18 00:26:06;;;;;;;1999.90;999.90;;;6.90;99.90;;;;;;5040287;28;20025;-66
2023/10/18 00:28:34;;;;;;;1999.90;999.90;;;6.90;99.90;;;;;;5034869;28;20022;-66
2023/10/18 00:31:18;;;;;;;1999.90;999.90;;;6.80;99.90;;;;;;5036359;28;20105;-65
2023/10/18 00:33:45;;;;;;;1999.90;999.90;;;6.80;99.90;;;;;;5036422;28;20029;-66
2023/10/18 00:36:11;;;;;;;1999.90;999.90;;;6.90;99.90;;;;;;5043653;28;20029;-65
2023/10/18 00:38:41;;;;;;;1999.90;999.90;;;6.80;99.90;;;;;;5039344;28;20023;-65
2023/10/18 00:41:14;;;;;;;1999.90;999.90;;;6.80;99.90;;;;;;5040298;28;20068;-66
2023/10/18 00:43:47;;;;;;;1999.90;999.90;;;6.90;99.90;;;;;;5038759;28;20025;-66
2023/10/18 00:46:16;;;;;;;1999.90;999.90;;;6.90;99.90;;;;;;5039827;28;20458;-66
2023/10/18 00:48:44;;;;;;;1999.90;999.90;;;6.80;99.90;;;;;;5046283;28;20132;-66
2023/10/18 00:51:15;;;;;;;1999.90;999.90;;;6.80;99.90;;;;;;5051464;28;20037;-65
2023/10/18 00:53:42;;;;;;;1999.90;999.90;;;6.80;99.90;;;;;;5041748;28;20021;-65
2023/10/18 00:56:11;;;;;;;1999.90;999.90;;;6.70;99.90;;;;;;5045766;28;20029;-85
2023/10/18 00:58:40;;;;;;;1999.90;999.90;;;6.70;99.90;;;;;;5048256;28;20029;-65
2023/10/18 01:01:09;;;;;;;1999.90;999.90;;;6.70;99.90;;;;;;5047350;28;20108;-66
2023/10/18 01:03:42;;;;;;;1999.90;999.90;;;6.70;99.90;;;;;;5045124;28;20091;-66
2023/10/18 01:06:17;;;;;;;1999.90;999.90;;;6.70;99.90;;;;;;5040223;28;20041;-66
2023/10/18 01:08:44;;;;;;;1999.90;999.90;;;6.70;99.90;;;;;;5042566;28;20033;-66
2023/10/18 01:11:11;;;;;;;1999.90;999.90;;;6.70;99.90;;;;;;5036329;28;20331;-66
2023/10/18 01:13:42;;;;;;;1999.90;999.90;;;6.70;99.90;;;;;;5035559;28;20030;-66
2023/10/18 01:16:15;;;;;;;1999.90;999.90;;;6.70;99.90;;;;;;5036306;28;20030;-66
2023/10/18 01:18:47;;;;;;;1999.90;999.90;;;6.60;99.90;;;;;;5048488;28;20021;-66
2023/10/18 01:21:19;;;;;;;1999.90;999.90;;;6.60;99.90;;;;;;5036351;28;20025;-66
2023/10/18 01:23:50;;;;;;;1999.90;999.90;;;6.70;99.90;;;;;;5035917;28;20029;-66
2023/10/18 01:26:17;;;;;;;1999.90;999.90;;;6.60;99.90;;;;;;5036269;28;20426;-66
2023/10/18 01:28:43;;;;;;;;;;;6.60;99.90;;;;;;5039193;28;20053;-66
2023/10/18 01:31:09;;;;;;;1999.90;999.90;;;6.60;99.90;;;;;;5035679;28;19956;-66
2023/10/18 01:33:43;;;;;;;1999.90;999.90;;;6.60;99.90;;;;;;5036625;28;20297;-66
2023/10/18 01:36:16;;;;;;;1999.90;999.90;;;6.60;99.90;;;;;;5035986;28;20334;-86
2023/10/18 01:38:52;;;;;;;1999.90;999.90;;;6.60;99.90;;;;;;5042532;28;20025;-66
2023/10/18 01:41:25;;;;;;;1999.90;999.90;;;6.60;99.90;;;;;;5044767;28;20053;-66
2023/10/18 01:44:01;;;;;;;1999.90;999.90;;;6.60;99.90;;;;;;5049939;28;20039;-66
2023/10/18 01:46:27;;;;;;;1999.90;999.90;;;6.50;99.90;;;;;;5052271;28;20025;-87
2023/10/18 01:48:55;;;;;;;1999.90;999.90;;;6.50;99.90;;;;;;5052514;28;20055;-66
2023/10/18 01:51:21;;;;;;;1999.90;999.90;;;6.50;99.90;;;;;;5041788;28;20416;-66
2023/10/18 01:53:47;;;;;;;1999.90;999.90;;;6.50;99.90;;;;;;5053801;28;20029;-66
2023/10/18 01:56:14;;;;;;;1999.90;999.90;;;6.50;99.90;;;;;;5037562;28;20040;-66
2023/10/18 01:58:39;;;;;;;1999.90;999.90;;;6.50;99.90;;;;;;5036544;28;20053;-66
2023/10/18 02:01:10;;;;;;;1999.90;999.90;;;6.50;99.90;;;;;;5054168;28;20071;-66
2023/10/18 02:03:39;;;;;;;1999.90;999.90;;;6.50;99.90;;;;;;5052920;28;20017;-92
2023/10/18 02:06:08;;;;;;;1999.90;999.90;;;6.50;99.90;;;;;;5045587;28;20025;-66
2023/10/18 02:08:34;;;;;;;1999.90;999.90;;;6.50;99.90;;;;;;5054895;28;20044;-66
2023/10/18 02:11:06;;;;;;;1999.90;999.90;;;6.50;99.90;;;;;;5052233;28;20348;-75
2023/10/18 02:13:32;;;;;;;1999.90;999.90;;;6.50;99.90;;;;;;5052995;28;20112;-66
2023/10/18 02:15:58;;;;;;;1999.90;999.90;;;6.50;99.90;;;;;;5037377;28;20112;-66
2023/10/18 02:18:26;;;;;;;1999.90;999.90;;;6.40;99.90;;;;;;5037222;28;20072;-66
2023/10/18 02:20:52;;;;;;;1999.90;999.90;;;6.40;99.90;;;;;;5035796;28;20052;-66
2023/10/18 02:23:19;;;;;;;1999.90;999.90;;;6.40;99.90;;;;;;5041497;28;20025;-66
2023/10/18 02:25:45;;;;;;;1999.90;999.90;;;6.40;99.90;;;;;;5048046;28;20025;-66
2023/10/18 02:28:22;;;;;;;1999.90;999.90;;;6.40;99.90;;;;;;5041759;28;20025;-67
2023/10/18 02:30:56;;;;;;;1999.90;999.90;;;6.40;99.90;;;;;;5037540;28;20018;-66
2023/10/18 02:36:38;;;;;;;1999.90;999.90;;;6.40;99.90;;;;;;5064432;28;20032;-66
2023/10/18 02:39:06;;;;;;;1999.90;999.90;;;6.40;99.90;;;;;;5055751;28;20020;-67
2023/10/18 02:41:34;;;;;;;1999.90;999.90;;;6.30;99.90;;;;;;5072598;28;20024;-66
2023/10/18 02:44:00;;;;;;;1999.90;999.90;;;6.30;99.90;;;;;;5071258;28;20024;-67
2023/10/18 02:46:26;;;;;;;1999.90;999.90;;;6.30;99.90;;;;;;5073054;28;20163;-66
2023/10/18 02:48:56;;;;;;;1999.90;999.90;;;6.30;99.90;;;;;;5069531;28;20759;-66
2023/10/18 02:51:24;;;;;;;1999.90;999.90;;;6.30;99.90;;;;;;5069114;28;20043;-66
2023/10/18 02:53:53;;;;;;;1999.90;999.90;;;6.30;99.90;;;;;;5071293;28;20044;-81
2023/10/18 02:56:27;;;;;;;1999.90;999.90;;;6.30;99.90;;;;;;5070865;28;20419;-66
2023/10/18 02:58:55;;;;;;;1999.90;999.90;;;6.30;99.90;;;;;;5072606;28;20041;-66
2023/10/18 03:01:22;;;;;;;1999.90;999.90;;;6.30;99.90;;;;;;5071935;28;20067;-66
2023/10/18 03:03:54;;;;;;;1999.90;999.90;;;6.20;99.90;;;;;;5055210;28;20419;-66
2023/10/18 03:06:24;;;;;;;1999.90;999.90;;;6.30;99.90;;;;;;5071942;28;20124;-66
2023/10/18 03:08:50;;;;;;;1999.90;999.90;;;6.40;99.90;;;;;;5072655;28;20131;-66
2023/10/18 03:11:20;;;;;;;1999.90;999.90;;;6.40;99.90;;;;;;5072076;28;20468;-65
2023/10/18 03:13:48;;;;;;;1999.90;999.90;;;6.40;99.90;;;;;;5038398;28;20048;-66
2023/10/18 03:18:46;;;;;;;1999.90;999.90;;;6.40;99.90;;;;;;5037780;28;20118;-66
2023/10/18 03:21:21;;;;;;;1999.90;999.90;;;6.40;99.90;;;;;;5039230;28;20408;-66
2023/10/18 03:23:57;;;;;;;1999.90;999.90;;;6.30;99.90;;;;;;5036181;28;20072;-67
2023/10/18 03:26:24;;;;;;;;;;;6.30;99.90;;;;;;5034315;28;20329;-66
2023/10/18 03:28:51;;;;;;;1999.90;999.90;;;6.30;99.90;;;;;;5034486;28;19915;-66
2023/10/18 03:34:04;;;;;;;1999.90;999.90;;;6.30;99.90;;;;;;5038146;28;20216;-66
2023/10/18 03:36:32;;;;;;;1999.90;999.90;;;6.30;99.90;;;;;;5038183;28;20033;-71
2023/10/18 03:39:21;;;;;;;1999.90;999.90;;;6.30;99.90;;;;;;5051287;28;20440;-66
2023/10/18 03:41:52;;;;;;;1999.90;999.90;;;6.30;99.90;;;;;;5046474;28;20037;-90
2023/10/18 03:44:26;;;;;;;1999.90;999.90;;;6.30;99.90;;;;;;5038057;28;20056;-66
2023/10/18 03:47:03;;;;;;;1999.90;999.90;;;6.30;99.90;;;;;;5040424;28;20438;-66
2023/10/18 03:51:57;;;;;;;1999.90;999.90;;;6.20;99.90;;;;;;5049638;28;20040;-66
2023/10/18 03:54:26;;;;;;;1999.90;999.90;;;6.20;99.90;;;;;;5052989;28;20100;-66
2023/10/18 03:56:53;;;;;;;1999.90;999.90;;;6.20;99.90;;;;;;5046129;28;20055;-66
2023/10/18 03:59:20;;;;;;;1999.90;999.90;;;6.20;99.90;;;;;;5054523;28;20582;-66
2023/10/18 04:02:15;;;;;;;;;;;6.20;99.90;;;;;;5056537;28;20033;-66
2023/10/18 04:04:36;;;;;;;1999.90;999.90;;;6.20;99.90;;;;;;5039937;28;19956;-67
2023/10/18 04:07:12;;;;;;;1999.90;999.90;;;6.20;99.90;;;;;;5046192;28;20055;-66
2023/10/18 04:12:29;;;;;;;1999.90;999.90;;;6.20;99.90;;;;;;5039083;28;20025;-65
2023/10/18 04:15:01;;;;;;;1999.90;999.90;;;6.20;99.90;;;;;;5053987;28;20024;-66
2023/10/18 04:22:47;;;;;;;1999.90;999.90;;;6.20;99.90;;;;;;5057068;28;20033;-66
2023/10/18 04:25:36;;;;;;;1999.90;999.90;;;6.20;99.90;;;;;;5051648;28;20108;-66
2023/10/18 04:28:02;;;;;;;1999.90;999.90;;;6.20;99.90;;;;;;5037284;28;20052;-66
2023/10/18 04:30:32;;;;;;;1999.90;999.90;;;6.20;99.90;;;;;;5057158;28;20028;-66
2023/10/18 04:33:12;;;;;;;1999.90;999.90;;;6.20;99.90;;;;;;5057390;28;20381;-66
2023/10/18 04:35:47;;;;;;;1999.90;999.90;;;6.10;99.90;;;;;;5049093;28;20072;-66
2023/10/18 04:38:22;;;;;;;1999.90;999.90;;;6.10;99.90;;;;;;5051723;28;20064;-66
2023/10/18 04:43:32;;;;;;;1999.90;999.90;;;6.10;99.90;;;;;;5037103;28;20032;-66
2023/10/18 04:46:02;;;;;;;1999.90;999.90;;;6.10;99.90;;;;;;5039825;28;20060;-66
2023/10/18 04:48:59;;;;;;;1999.90;999.90;;;6.10;99.90;;;;;;5039740;28;20044;-66
2023/10/18 04:51:27;;;;;;;1999.90;999.90;;;6.10;99.90;;;;;;5043218;28;20059;-67
2023/10/18 04:54:08;;;;;;;1999.90;999.90;;;6.10;99.90;;;;;;5056955;28;20178;-66
2023/10/18 04:56:34;;;;;;;1999.90;999.90;;;6.10;99.90;;;;;;5044618;28;20028;-88
2023/10/18 05:01:56;;;;;;;1999.90;999.90;;;6.20;99.90;;;;;;5037521;28;20029;-66
2023/10/18 05:04:34;;;;;;;1999.90;999.90;;;6.10;99.90;;;;;;5047129;28;20040;-66
2023/10/18 05:07:14;;;;;;;1999.90;999.90;;;6.00;99.90;;;;;;5047747;28;20026;-66
2023/10/18 05:12:07;;;;;;;1999.90;999.90;;;6.10;99.90;;;;;;5049509;28;20025;-66
2023/10/18 05:15:22;;;;;;;1999.90;999.90;;;6.10;99.90;;;;;;5049222;28;20018;-66
2023/10/18 05:17:23;;;;;;;1999.90;999.90;;;6.10;99.90;;;;;;5041945;28;20069;-66
2023/10/18 05:19:58;;;;;;;1999.90;999.90;;;6.10;99.90;;;;;;5045417;28;20030;-66
2023/10/18 05:22:24;;;;;;;1999.90;999.90;;;6.10;99.90;;;;;;5045698;28;20108;-66
2023/10/18 05:27:38;;;;;;;1999.90;999.90;;;6.00;99.90;;;;;;5037972;28;20028;-87
2023/10/18 05:33:03;;;;;;;1999.90;999.90;;;6.00;99.90;;;;;;5037869;28;20029;-68
2023/10/18 05:35:34;;;;;;;1999.90;999.90;;;6.00;99.90;;;;;;5043531;28;20029;-66
2023/10/18 05:38:06;;;;;;;1999.90;999.90;;;6.10;99.90;;;;;;5036286;28;20025;-88
2023/10/18 05:43:05;;;;;;;1999.90;999.90;;;6.00;99.90;;;;;;5047551;28;20031;-66
2023/10/18 05:45:32;;;;;;;1999.90;999.90;;;6.00;99.90;;;;;;5047903;28;20025;-66
2023/10/18 05:48:12;;;;;;;;;;;6.00;99.90;;;;;;5047435;28;20029;-66
2023/10/18 05:50:38;;;;;;;1999.90;999.90;;;6.00;99.90;;;;;;5055867;28;19923;-66
2023/10/18 05:53:11;;;;;;;1999.90;999.90;;;6.00;99.90;;;;;;5040827;28;20018;-85
2023/10/18 05:55:38;;;;;;;1999.90;999.90;;;6.00;99.90;;;;;;5036369;28;20068;-66
2023/10/18 05:58:07;;;;;;;1999.90;999.90;;;6.00;99.90;;;;;;5061541;28;20021;-66
2023/10/18 06:00:33;;;;;;;1999.90;999.90;;;5.90;99.90;;;;;;5061426;28;20324;-66
2023/10/18 06:02:59;;;;;;;1999.90;999.90;;;6.00;99.90;;;;;;5042226;28;20021;-65
2023/10/18 06:05:36;;;;;;;1999.90;999.90;;;6.00;99.90;;;;;;5034753;28;20029;-65
2023/10/18 06:08:02;;;;;;;1999.90;999.90;;;6.00;99.90;;;;;;5040115;28;20298;-82
2023/10/18 06:10:27;;;;;;;1999.90;999.90;;;6.00;99.90;;;;;;5063017;28;20036;-66
2023/10/18 06:12:57;;;;;;;1999.90;999.90;;;6.00;99.90;;;;;;5042792;28;20030;-66
2023/10/18 06:15:38;;;;;;;1999.90;999.90;;;6.00;99.90;;;;;;5037034;28;20040;-65
2023/10/18 06:18:09;;;;;;;1999.90;999.90;;;6.00;99.90;;;;;;5043041;28;20032;-66
2023/10/18 06:20:38;;;;;;;1999.90;999.90;;;6.10;99.90;;;;;;5040670;28;20020;-66
2023/10/18 06:23:09;;;;;;;1999.90;999.90;;;6.10;99.90;;;;;;5044359;28;20029;-66
2023/10/18 06:25:38;;;;;;;1999.90;999.90;;;6.10;99.90;;;;;;5039124;28;20028;-66
2023/10/18 06:28:07;;;;;;;1999.90;999.90;;;6.10;99.90;;;;;;5041106;28;20026;-66
2023/10/18 06:30:39;;;;;;;1999.90;999.90;;;6.00;99.90;;;;;;5051833;28;20046;-66
2023/10/18 06:33:07;;;;;;;1999.90;999.90;;;6.10;99.90;;;;;;5044712;28;20021;-66
2023/10/18 06:35:42;;;;;;;1999.90;999.90;;;6.10;99.90;;;;;;5048236;28;20307;-66
2023/10/18 06:38:17;;;;;;;1999.90;999.90;;;6.10;99.90;;;;;;5044701;28;20040;-66
2023/10/18 06:40:43;;;;;;;1999.90;999.90;;;6.10;99.90;;;;;;5040460;28;20049;-66
2023/10/18 06:43:09;;;;;;;;;;;6.10;99.90;;;;;;5052760;28;20057;-66
2023/10/18 06:45:40;;;;;;;1999.90;999.90;;;6.10;99.90;;;;;;5047112;28;19932;-67
2023/10/18 06:48:08;;;;;;;1999.90;999.90;;;6.10;99.90;;;;;;5053035;28;20032;-66
2023/10/18 06:50:35;;;;;;;1999.90;999.90;;;6.10;99.90;;;;;;5057631;28;20033;-67
2023/10/18 06:53:05;;;;;;;1999.90;999.90;;;6.10;99.90;;;;;;5046694;28;20044;-67
2023/10/18 07:00:54;;;;;;;1999.90;999.90;;;6.20;99.90;;;;;;5057491;28;20020;-66
2023/10/18 07:03:31;;;;;;;1999.90;999.90;;;6.20;99.90;;;;;;5042922;28;20060;-65
2023/10/18 07:05:57;;;;;;;1999.90;999.90;;;6.30;99.90;;;;;;5038438;28;20036;-66
2023/10/18 07:08:45;;;;;;;1999.90;999.90;;;6.30;99.90;;;;;;5048126;28;20346;-66
2023/10/18 07:11:16;;;;;;;1999.90;999.90;;;6.40;99.90;;;;;;5059852;28;20038;-88
2023/10/18 07:13:46;;;;;;;1999.90;999.90;;;6.40;99.90;;;;;;5054215;28;20033;-66
2023/10/18 07:16:16;;;;;;;1999.90;999.90;;;6.50;99.90;;;;;;5047284;28;20043;-66
2023/10/18 07:18:44;;;;;;;1999.90;999.90;;;6.40;99.90;;;;;;5041419;28;20212;-66
2023/10/18 07:21:11;;;;;;;1999.90;999.90;;;6.50;99.90;;;;;;5052824;28;20021;-66
2023/10/18 07:23:37;;;;;;;;;;;6.50;99.90;;;;;;5040879;28;20032;-66
2023/10/18 07:26:14;;;;;;;1999.90;999.90;;;6.50;99.90;;;;;;5042256;28;20326;-84
2023/10/18 07:28:41;;;;;;;1999.90;999.90;;;6.50;99.90;;;;;;5044589;28;20044;-66
2023/10/18 07:31:10;;;;;;;1999.90;999.90;;;6.60;99.90;;;;;;5055416;28;20040;-65
2023/10/18 07:33:45;;;;;;;1999.90;999.90;;;6.60;99.90;;;;;;5060628;28;20029;-66
2023/10/18 07:36:12;;;;;;;1999.90;999.90;;;6.70;99.90;;;;;;5051446;28;20043;-66
2023/10/18 07:38:39;;;;;;;;;;;6.70;99.90;;;;;;5056776;28;20026;-66
2023/10/18 07:41:07;;;;;;;;;;;6.80;99.90;;;;;;5043842;28;19905;-66
2023/10/18 07:43:35;;;;;;;1999.90;999.90;;;6.80;99.90;;;;;;5056902;28;19974;-66
2023/10/18 07:46:06;;;;;;;1999.90;999.90;;;6.90;99.90;;;;;;5055853;28;20022;-66
2023/10/18 07:48:31;;;;;;;1999.90;999.90;;;6.90;99.90;;;;;;5057104;28;20021;-89
2023/10/18 07:50:58;;;;;;;1999.90;999.90;;;7.00;99.90;;;;;;5050510;28;20036;-66
2023/10/18 07:53:24;;;;;;;1999.90;999.90;;;7.10;99.90;;;;;;5038051;28;20412;-87
2023/10/18 07:55:56;;;;;;;1999.90;999.90;;;7.10;99.90;;;;;;5037495;28;20037;-66
2023/10/18 07:58:25;;;;;;;1999.90;999.90;;;7.20;99.90;;;;;;5036731;28;20116;-67
2023/10/18 08:03:28;;;;;;;1999.90;999.90;;;7.30;99.90;;;;;;5037533;28;20026;-86
2023/10/18 08:05:55;;;;;;;1999.90;999.90;;;7.40;99.90;;;;;;5053058;28;20031;-66
2023/10/18 08:08:24;;;;;;;1999.90;999.90;;;7.50;99.90;;;;;;5056186;28;20031;-66
2023/10/18 08:10:53;;;;;;;1999.90;999.90;;;7.60;99.90;;;;;;5044359;28;20028;-79
2023/10/18 08:13:25;;;;;;;1999.90;999.90;;;7.70;99.90;;;;;;5039225;28;20022;-66
2023/10/18 08:15:55;;;;;;;1999.90;999.90;;;7.80;99.90;;;;;;5048021;28;20038;-66
2023/10/18 08:19:05;;;;;;;1999.90;999.90;;;7.90;99.90;;;;;;5043117;28;20025;-66
2023/10/18 08:21:25;;;;;;;1999.90;999.90;;;8.00;99.90;;;;;;5045367;28;20079;-66
2023/10/18 08:24:07;;;;;;;1999.90;999.90;;;8.00;99.90;;;;;;5039647;28;20030;-66
2023/10/18 08:26:39;;;;;;;1999.90;999.90;;;8.10;99.90;;;;;;5036860;28;20320;-66
2023/10/18 08:29:07;;;;;;;1999.90;999.90;;;8.20;99.90;;;;;;5043317;28;20056;-94
2023/10/18 08:31:32;;;;;;;1999.90;999.90;;;8.30;99.90;;;;;;5044188;28;20036;-65
2023/10/18 08:34:01;;;;;;;1999.90;999.90;;;8.40;99.90;;;;;;5049801;28;20017;-66
2023/10/18 08:36:30;;;;;;;1999.90;999.90;;;8.60;99.90;;;;;;5037242;28;20374;-66
2023/10/18 08:38:57;;;;;;;1999.90;999.90;;;8.70;99.90;;;;;;5042742;28;20024;-85
2023/10/18 08:41:32;;;;;;;1999.90;999.90;;;8.80;99.90;;;;;;5038466;28;20075;-65
2023/10/18 08:44:16;;;;;;;1999.90;999.90;;;8.90;99.90;;;;;;5044806;28;20030;-66
2023/10/18 08:49:33;;;;;;;1999.90;999.90;;;9.00;99.90;;;;;;5051020;28;20135;-65
2023/10/18 08:52:08;;;;;;;1999.90;999.90;;;9.20;99.90;;;;;;5050796;28;20037;-66
2023/10/18 08:54:36;;;;;;;1999.90;999.90;;;9.10;99.90;;;;;;5053027;28;20312;-66
2023/10/18 08:57:08;;;;;;;1999.90;999.90;;;9.20;99.90;;;;;;5035713;28;20100;-67
2023/10/18 08:59:49;;;;;;;1999.90;999.90;;;9.30;99.90;;;;;;5036753;28;20378;-67
2023/10/18 09:02:21;;;;;;;1999.90;999.90;;;9.50;99.90;;;;;;5045892;28;20029;-67
2023/10/18 09:04:59;;;;;;;1999.90;999.90;;;9.60;99.90;;;;;;5045182;28;20071;-67
2023/10/18 09:07:45;;;;;;;1999.90;999.90;;;9.60;99.90;;;;;;5036635;28;20025;-67
2023/10/18 09:10:13;;;;;;;1999.90;999.90;;;9.70;99.90;;;;;;5036029;28;20025;-66
2023/10/18 09:15:27;;;;;;;1999.90;999.90;;;10.00;99.90;;;;;;5043574;28;20106;-82
2023/10/18 09:17:57;;;;;;;1999.90;999.90;;;10.00;99.90;;;;;;5044265;28;20024;-66
2023/10/18 09:20:27;;;;;;;1999.90;999.90;;;10.10;99.90;;;;;;5049507;28;20021;-66
2023/10/18 09:22:53;;;;;;;1999.90;999.90;;;10.10;99.90;;;;;;5052448;28;20408;-66
2023/10/18 09:25:24;;;;;;;1999.90;999.90;;;10.10;99.90;;;;;;5048458;28;20040;-65
2023/10/18 09:27:51;;;;;;;1999.90;999.90;;;10.10;99.90;;;;;;5064518;28;20424;-80
2023/10/18 09:30:20;;;;;;;1999.90;999.90;;;10.20;99.90;;;;;;5054395;28;20035;-66
2023/10/18 09:32:46;;;;;;;1999.90;999.90;;;10.20;99.90;;;;;;5044997;28;20016;-65
2023/10/18 09:35:13;;;;;;;1999.90;999.90;;;10.30;99.90;;;;;;5038085;28;20017;-67
2023/10/18 09:37:39;;;;;;;1999.90;999.90;;;10.40;99.90;;;;;;5039307;28;20407;-66
2023/10/18 09:40:06;;;;;;;1999.90;999.90;;;10.40;99.90;;;;;;5056580;28;20021;-66
2023/10/18 09:42:31;;;;;;;1999.90;999.90;;;10.50;99.90;;;;;;5051330;28;21008;-67
2023/10/18 09:44:59;;;;;;;1999.90;999.90;;;10.50;99.90;;;;;;5048780;28;20039;-82
2023/10/18 09:47:26;;;;;;;1999.90;999.90;;;10.50;99.90;;;;;;5043413;28;20367;-67
2023/10/18 09:49:56;;;;;;;1999.90;999.90;;;10.50;99.90;;;;;;5050003;28;20052;-67
2023/10/18 09:52:24;;;;;;;1999.90;999.90;;;10.40;99.90;;;;;;5043287;28;20037;-67
2023/10/18 09:54:51;;;;;;;1999.90;999.90;;;10.30;99.90;;;;;;5062385;28;20029;-67
2023/10/18 09:57:24;;;;;;;1999.90;999.90;;;10.40;99.90;;;;;;5037776;28;20534;-89
2023/10/18 09:59:54;;;;;;;1999.90;999.90;;;10.40;99.90;;;;;;5043435;28;20083;-67
2023/10/18 10:02:21;;;;;;;1999.90;999.90;;;10.40;99.90;;;;;;5052740;28;20103;-65
2023/10/18 10:04:52;;;;;;;1999.90;999.90;;;10.40;99.90;;;;;;5054916;28;20021;-66
2023/10/18 10:07:36;;;;;;;1999.90;999.90;;;10.50;99.90;;;;;;5052924;28;20312;-67
2023/10/18 10:10:08;;;;;;;1999.90;999.90;;;10.50;99.90;;;;;;5043382;28;20475;-68
2023/10/18 10:12:35;;;;;;;1999.90;999.90;;;10.50;99.90;;;;;;5052068;28;20112;-66
2023/10/18 10:15:03;;;;;;;1999.90;999.90;;;10.60;99.90;;;;;;5051858;28;20017;-69
2023/10/18 10:17:31;;;;;;;1999.90;999.90;;;10.60;99.90;;;;;;5050628;28;20017;-81
2023/10/18 10:20:10;;;;;;;1999.90;999.90;;;10.70;99.90;;;;;;5050218;28;20091;-67
2023/10/18 10:22:38;;;;;;;1999.90;999.90;;;10.70;99.90;;;;;;5046342;28;20075;-68
2023/10/18 10:25:04;;;;;;;1999.90;999.90;;;10.80;99.90;;;;;;5049870;28;20344;-66
2023/10/18 10:30:03;;;;;;;1999.90;999.90;;;10.90;99.90;;;;;;5042000;28;20045;-66
2023/10/18 10:32:30;;;;;;;1999.90;999.90;;;10.90;99.90;;;;;;5039652;28;20088;-66
2023/10/18 10:35:19;;;;;;;1999.90;999.90;;;10.90;99.90;;;;;;5059963;28;20021;-65
2023/10/18 10:38:14;;;;;;;1999.90;999.90;;;11.00;99.90;;;;;;5035764;28;20116;-66
2023/10/18 10:40:48;;;;;;;1999.90;999.90;;;11.10;99.90;;;;;;5042465;28;20041;-67
2023/10/18 10:43:14;;;;;;;1999.90;999.90;;;11.20;99.90;;;;;;5036741;28;20486;-66
2023/10/18 10:45:53;;;;;;;1999.90;999.90;;;11.30;99.90;;;;;;5044758;28;20032;-67
2023/10/18 10:51:12;;;;;;;1999.90;999.90;;;11.50;99.90;;;;;;5045759;28;20477;-73
2023/10/18 10:54:06;;;;;;;1999.90;999.90;;;11.50;99.90;;;;;;5042882;28;20044;-67
2023/10/18 10:56:32;;;;;;;1999.90;999.90;;;11.50;99.90;;;;;;5038781;28;20041;-68
2023/10/18 10:59:21;;;;;;;1999.90;999.90;;;11.50;99.90;;;;;;5040128;28;20182;-66
2023/10/18 11:01:43;;;;;;;1999.90;999.90;;;11.70;99.90;;;;;;5043123;28;20119;-67
2023/10/18 11:04:24;;;;;;;1999.90;999.90;;;11.80;99.90;;;;;;5049646;28;20107;-67
2023/10/18 11:06:56;;;;;;;1999.90;999.90;;;11.80;99.90;;;;;;5045220;28;20036;-67
2023/10/18 11:09:32;;;;;;;1999.90;999.90;;;11.90;99.90;;;;;;5044216;28;20029;-67
2023/10/18 11:12:03;;;;;;;1999.90;999.90;;;11.90;99.90;;;;;;5041432;28;20099;-65
2023/10/18 11:14:30;;;;;;;1999.90;999.90;;;12.00;99.90;;;;;;5050769;28;20270;-65
2023/10/18 11:19:53;;;;;;;1999.90;999.90;;;12.00;99.90;;;;;;5046727;28;20115;-80
2023/10/18 11:22:21;;;;;;;1999.90;999.90;;;12.00;99.90;;;;;;5055617;28;20040;-66
2023/10/18 11:24:49;;;;;;;1999.90;999.90;;;11.90;99.90;;;;;;5042395;28;20037;-65
2023/10/18 11:27:25;;;;;;;1999.90;999.90;;;11.90;99.90;;;;;;5036865;28;20020;-66
2023/10/18 11:30:13;;;;;;;1999.90;999.90;;;11.90;99.90;;;;;;5040936;28;20392;-68
2023/10/18 11:32:39;;;;;;;1999.90;999.90;;;12.00;99.90;;;;;;5037434;28;20029;-65
2023/10/18 11:35:12;;;;;;;1999.90;999.90;;;12.10;99.90;;;;;;5035080;28;20020;-67
2023/10/18 11:37:40;;;;;;;1999.90;999.90;;;12.10;99.90;;;;;;5050855;28;20032;-66
2023/10/18 11:40:16;;;;;;;1999.90;999.90;;;12.10;99.90;;;;;;5043231;28;20063;-68
2023/10/18 11:43:10;;;;;;;1999.90;999.90;;;12.20;99.90;;;;;;5045085;28;20035;-67
2023/10/18 11:45:39;;;;;;;1999.90;999.90;;;12.20;99.90;;;;;;5042332;28;20185;-79
2023/10/18 11:48:06;;;;;;;1999.90;999.90;;;12.20;99.90;;;;;;5045758;28;20087;-67
2023/10/18 11:50:42;;;;;;;;;;;12.20;99.90;;;;;;5045221;28;20052;-68
2023/10/18 11:53:12;;;;;;;1999.90;999.90;;;12.20;99.90;;;;;;5045136;28;19935;-67
2023/10/18 11:55:58;;;;;;;1999.90;999.90;;;12.30;99.90;;;;;;5043617;28;20079;-66
2023/10/18 11:58:29;;;;;;;1999.90;999.90;;;12.30;99.90;;;;;;5049789;28;20044;-66
2023/10/18 12:01:05;;;;;;;1999.90;999.90;;;12.40;99.90;;;;;;5043513;28;20037;-66
2023/10/18 12:03:35;;;;;;;1999.90;999.90;;;12.40;99.90;;;;;;5050567;28;20033;-68
2023/10/18 12:06:02;;;;;;;1999.90;999.90;;;12.40;99.90;;;;;;5047374;28;20044;-66
2023/10/18 12:08:30;;;;;;;1999.90;999.90;;;12.40;99.90;;;;;;5044959;28;20106;-67
2023/10/18 12:10:57;;;;;;;1999.90;999.90;;;12.50;99.90;;;;;;5056930;28;20105;-65
2023/10/18 12:13:24;;;;;;;1999.90;999.90;;;12.50;99.90;;;;;;5044233;28;20104;-66
2023/10/18 12:15:50;;;;;;;1999.90;999.90;;;12.60;99.90;;;;;;5040929;28;20025;-80
2023/10/18 12:18:16;;;;;;;1999.90;999.90;;;12.70;99.90;;;;;;5053628;28;20367;-66
2023/10/18 12:20:45;;;;;;;1999.90;999.90;;;12.80;99.90;;;;;;5049115;28;20029;-69
2023/10/18 12:23:13;;;;;;;1999.90;999.90;;;12.90;99.90;;;;;;5044917;28;20516;-69
2023/10/18 12:25:42;;;;;;;1999.90;999.90;;;12.90;99.90;;;;;;5042652;28;20036;-68
2023/10/18 12:28:12;;;;;;;1999.90;999.90;;;12.90;99.90;;;;;;5056024;28;20320;-66
2023/10/18 12:30:43;;;;;;;1999.90;999.90;;;12.90;99.90;;;;;;5047426;28;20029;-67
2023/10/18 12:33:19;;;;;;;1999.90;999.90;;;13.00;99.90;;;;;;5040010;28;20020;-68
2023/10/18 12:35:48;;;;;;;1999.90;999.90;;;13.00;99.90;;;;;;5042587;28;20024;-68
2023/10/18 12:38:14;;;;;;;1999.90;999.90;;;13.10;99.90;;;;;;5050013;28;20140;-66
2023/10/18 12:40:54;;;;;;;1999.90;999.90;;;13.10;99.90;;;;;;5035823;28;20022;-78
2023/10/18 12:43:21;;;;;;;1999.90;999.90;;;13.10;99.90;;;;;;5035157;28;20116;-67
2023/10/18 12:45:53;;;;;;;;;;;13.10;99.90;;;;;;5037252;28;20029;-66
2023/10/18 12:48:22;;;;;;;1999.90;999.90;;;13.10;99.90;;;;;;5048283;28;20003;-78
2023/10/18 12:50:53;;;;;;;1999.90;999.90;;;13.20;99.90;;;;;;5044436;28;20033;-67
2023/10/18 12:55:59;;;;;;;1999.90;999.90;;;13.30;99.90;;;;;;5044048;28;20342;-67
2023/10/18 12:58:31;;;;;;;1999.90;999.90;;;13.40;99.90;;;;;;5049360;28;20316;-68
2023/10/18 13:01:10;;;;;;;1999.90;999.90;;;13.40;99.90;;;;;;5045357;28;20212;-67
2023/10/18 13:03:44;;;;;;;1999.90;999.90;;;13.30;99.90;;;;;;5046637;28;20051;-80
2023/10/18 13:06:17;;;;;;;1999.90;999.90;;;13.30;99.90;;;;;;5049383;28;20548;-67
2023/10/18 13:08:56;;;;;;;1999.90;999.90;;;13.30;99.90;;;;;;5040640;28;20067;-68
2023/10/18 13:14:13;;;;;;;1999.90;999.90;;;13.20;99.90;;;;;;5039261;28;20051;-67
2023/10/18 13:16:39;;;;;;;1999.90;999.90;;;13.20;99.90;;;;;;5040823;28;20036;-69
2023/10/18 13:19:06;;;;;;;1999.90;999.90;;;13.20;99.90;;;;;;5043786;28;20032;-67
2023/10/18 13:21:32;;;;;;;1999.90;999.90;;;13.20;99.90;;;;;;5051077;28;20064;-67
2023/10/18 13:24:16;;;;;;;1999.90;999.90;;;13.20;99.90;;;;;;5052149;28;20115;-67
2023/10/18 13:26:53;;;;;;;1999.90;999.90;;;13.30;99.90;;;;;;5037413;28;20038;-67
2023/10/18 13:31:52;;;;;;;1999.90;999.90;;;13.40;99.90;;;;;;5045098;28;20029;-67